Andrew, IL

10:26 AM CDT on May 29, 2015 (GMT -0500)
Springfield West Side | | Change Station
CLOSE
Current Station
Personal Weather Station
Location: Springfield, IL
Elevation: 604 ft
Nearby Weather Stations

Elev 604 ft 39.79 °N, 89.69 °W | Updated 6 seconds ago

Overcast
Overcast
78.6 °F
Feels Like 81 °F
N
0.9
Wind Variable Wind from NE
Gusts 2.5 mph

Today
High -- | Low -- °F
--% Chance of Precip.
Yesterday
High -- | Low -- °F
Precip. -- in
5:34 AM 8:18 PM
Waxing Gibbous, 84% visible
Pressure 30.03 in
Visibility 10.0 miles
Clouds Few 2400 ft
Mostly Cloudy 3100 ft
Overcast 7000 ft
Heat Index 81 °F
Dew Point 69 °F
Humidity 73%
Rainfall 0.00 in
Snow Depth Not available.
UV 2 out of 12
Pollen 7.60 out of 12
Air Quality Not available.
Flu Activity Sporadic
METAR KSPI 291452Z 21010KT 10SM FEW024 BKN031 OVC070 24/19 A3004 RMK AO2 SLP168 T02440189 51006

More Conditions Fewer Conditions

Pressure 30.03 in
Visibility 10.0 miles
Clouds Few 2400 ft
Mostly Cloudy 3100 ft
Overcast 7000 ft
Heat Index 81 °F
Dew Point 69 °F
Humidity 73%
Rainfall 0.00 in
Snow Depth Not available.
UV 2 out of 12
Pollen 7.60 out of 12
Air Quality Not available.
Flu Activity Sporadic
METAR KSPI 291452Z 21010KT 10SM FEW024 BKN031 OVC070 24/19 A3004 RMK AO2 SLP168 T02440189 51006

More Conditions Fewer Conditions

10-Day Weather Forecast

Almanac

Astronomy

May. 29, 2015 Rise Set
Actual Time
Civil Twilight
Nautical Twilight
Astronomical Twilight
Moon
Length of Visible Light
Length of Day
Tomorrow will be .
, % of the Moon is Illuminated

Today's Extremes

State Highs State Lows

Community

WunderPhotos

Upload Photos

1,825,291 photos uploaded!

WunderBlogs® & News

Nearby

Air Quality

  Air Quality AQ Index Pollutant
Not available.

Snow Depth

Station Depth Elevation

Earthquake Activity

City Distance Mag. Time & Date
Minimum magnitude displayed is 2.5.

Coastal Water Temperatures

Place Temperature

Stations

Nearby Weather Stations

Station Location Temp. Windchill Dew Point Humidity Wind Precip. Elev Updated Type